sensor_id;sensor_type;location;lat;lon;timestamp;temperature;humidity
1129;DHT22;553;51.038;7.216;2023-08-12T00:00:11;22.20;99.90
1129;DHT22;553;51.038;7.216;2023-08-12T00:02:43;22.20;99.90
1129;DHT22;553;51.038;7.216;2023-08-12T00:05:10;22.10;99.90
1129;DHT22;553;51.038;7.216;2023-08-12T00:07:38;22.10;99.90
1129;DHT22;553;51.038;7.216;2023-08-12T00:10:09;22.20;99.90
1129;DHT22;553;51.038;7.216;2023-08-12T00:12:37;22.20;99.90
1129;DHT22;553;51.038;7.216;2023-08-12T00:15:05;22.20;99.90
1129;DHT22;553;51.038;7.216;2023-08-12T00:17:34;22.10;99.90
1129;DHT22;553;51.038;7.216;2023-08-12T00:20:05;22.10;99.90
1129;DHT22;553;51.038;7.216;2023-08-12T00:22:36;22.10;99.90
1129;DHT22;553;51.038;7.216;2023-08-12T00:25:03;22.10;99.90
1129;DHT22;553;51.038;7.216;2023-08-12T00:27:30;22.10;99.90
1129;DHT22;553;51.038;7.216;2023-08-12T00:29:57;22.10;99.90
1129;DHT22;553;51.038;7.216;2023-08-12T00:32:24;22.10;99.90
1129;DHT22;553;51.038;7.216;2023-08-12T00:34:50;22.10;99.90
1129;DHT22;553;51.038;7.216;2023-08-12T00:37:17;22.20;99.90
1129;DHT22;553;51.038;7.216;2023-08-12T00:39:44;22.20;99.90
1129;DHT22;553;51.038;7.216;2023-08-12T00:42:11;22.10;99.90
1129;DHT22;553;51.038;7.216;2023-08-12T00:44:38;22.00;99.90
1129;DHT22;553;51.038;7.216;2023-08-12T00:47:05;21.90;99.90
1129;DHT22;553;51.038;7.216;2023-08-12T00:49:32;21.90;99.90
1129;DHT22;553;51.038;7.216;2023-08-12T00:52:00;21.80;99.90
1129;DHT22;553;51.038;7.216;2023-08-12T00:54:28;21.80;99.90
1129;DHT22;553;51.038;7.216;2023-08-12T00:56:55;21.90;99.90
1129;DHT22;553;51.038;7.216;2023-08-12T00:59:22;21.90;99.90
1129;DHT22;553;51.038;7.216;2023-08-12T01:01:50;21.80;99.90
1129;DHT22;553;51.038;7.216;2023-08-12T01:04:17;21.80;99.90
1129;DHT22;553;51.038;7.216;2023-08-12T01:06:43;21.90;99.90
1129;DHT22;553;51.038;7.216;2023-08-12T01:09:11;21.90;99.90
1129;DHT22;553;51.038;7.216;2023-08-12T01:11:48;21.80;99.90
1129;DHT22;553;51.038;7.216;2023-08-12T01:17:11;21.60;99.90
1129;DHT22;553;51.038;7.216;2023-08-12T01:19:40;21.80;99.90
1129;DHT22;553;51.038;7.216;2023-08-12T01:22:10;21.70;99.90
1129;DHT22;553;51.038;7.216;2023-08-12T01:24:38;21.70;99.90
1129;DHT22;553;51.038;7.216;2023-08-12T01:27:06;21.70;99.90
1129;DHT22;553;51.038;7.216;2023-08-12T01:29:36;21.80;99.90
1129;DHT22;553;51.038;7.216;2023-08-12T01:35:15;21.80;99.90
1129;DHT22;553;51.038;7.216;2023-08-12T01:37:50;21.80;99.90
1129;DHT22;553;51.038;7.216;2023-08-12T01:40:19;21.80;99.90
1129;DHT22;553;51.038;7.216;2023-08-12T01:42:46;21.80;99.90
1129;DHT22;553;51.038;7.216;2023-08-12T01:45:13;21.70;99.90
1129;DHT22;553;51.038;7.216;2023-08-12T01:47:43;21.60;99.90
1129;DHT22;553;51.038;7.216;2023-08-12T01:50:10;21.60;99.90
1129;DHT22;553;51.038;7.216;2023-08-12T01:52:37;21.50;99.90
1129;DHT22;553;51.038;7.216;2023-08-12T01:55:04;21.50;99.90
1129;DHT22;553;51.038;7.216;2023-08-12T01:57:30;21.40;99.90
1129;DHT22;553;51.038;7.216;2023-08-12T01:59:57;21.40;99.90
1129;DHT22;553;51.038;7.216;2023-08-12T02:02:24;21.40;99.90
1129;DHT22;553;51.038;7.216;2023-08-12T02:04:51;21.40;99.90
1129;DHT22;553;51.038;7.216;2023-08-12T02:07:17;21.30;99.90
1129;DHT22;553;51.038;7.216;2023-08-12T02:09:44;21.30;99.90
1129;DHT22;553;51.038;7.216;2023-08-12T02:12:11;21.30;99.90
1129;DHT22;553;51.038;7.216;2023-08-12T02:14:38;21.30;99.90
1129;DHT22;553;51.038;7.216;2023-08-12T02:17:05;21.30;99.90
1129;DHT22;553;51.038;7.216;2023-08-12T02:19:33;21.30;99.90
1129;DHT22;553;51.038;7.216;2023-08-12T02:22:01;21.40;99.90
1129;DHT22;553;51.038;7.216;2023-08-12T02:24:28;21.40;99.90
1129;DHT22;553;51.038;7.216;2023-08-12T02:26:55;21.40;99.90
1129;DHT22;553;51.038;7.216;2023-08-12T02:29:22;21.40;99.90
1129;DHT22;553;51.038;7.216;2023-08-12T02:31:48;21.40;99.90
1129;DHT22;553;51.038;7.216;2023-08-12T02:34:19;21.40;99.90
1129;DHT22;553;51.038;7.216;2023-08-12T02:36:46;21.30;99.90
1129;DHT22;553;51.038;7.216;2023-08-12T02:39:13;21.30;99.90
1129;DHT22;553;51.038;7.216;2023-08-12T02:41:40;21.40;99.90
1129;DHT22;553;51.038;7.216;2023-08-12T02:44:07;21.40;99.90
1129;DHT22;553;51.038;7.216;2023-08-12T02:46:34;21.40;99.90
1129;DHT22;553;51.038;7.216;2023-08-12T02:49:00;21.40;99.90
1129;DHT22;553;51.038;7.216;2023-08-12T02:51:27;21.50;99.90
1129;DHT22;553;51.038;7.216;2023-08-12T02:53:54;21.50;99.90
1129;DHT22;553;51.038;7.216;2023-08-12T02:56:20;21.40;99.90
1129;DHT22;553;51.038;7.216;2023-08-12T02:58:47;21.40;99.90
1129;DHT22;553;51.038;7.216;2023-08-12T03:01:14;21.30;99.90
1129;DHT22;553;51.038;7.216;2023-08-12T03:03:42;21.30;99.90
1129;DHT22;553;51.038;7.216;2023-08-12T03:06:09;21.30;99.90
1129;DHT22;553;51.038;7.216;2023-08-12T03:08:36;21.30;99.90
1129;DHT22;553;51.038;7.216;2023-08-12T03:11:05;21.20;99.90
1129;DHT22;553;51.038;7.216;2023-08-12T03:13:31;21.20;99.90
1129;DHT22;553;51.038;7.216;2023-08-12T03:15:58;21.20;99.90
1129;DHT22;553;51.038;7.216;2023-08-12T03:18:25;21.20;99.90
1129;DHT22;553;51.038;7.216;2023-08-12T03:20:52;21.20;99.90
1129;DHT22;553;51.038;7.216;2023-08-12T03:23:21;21.20;99.90
1129;DHT22;553;51.038;7.216;2023-08-12T03:25:49;21.20;99.90
1129;DHT22;553;51.038;7.216;2023-08-12T03:28:16;21.10;99.90
1129;DHT22;553;51.038;7.216;2023-08-12T03:30:50;21.20;99.90
1129;DHT22;553;51.038;7.216;2023-08-12T03:33:19;21.10;99.90
1129;DHT22;553;51.038;7.216;2023-08-12T03:35:47;21.10;99.90
1129;DHT22;553;51.038;7.216;2023-08-12T03:38:15;21.10;99.90
1129;DHT22;553;51.038;7.216;2023-08-12T03:40:43;21.20;99.90
1129;DHT22;553;51.038;7.216;2023-08-12T03:43:13;21.20;99.90
1129;DHT22;553;51.038;7.216;2023-08-12T03:45:45;21.20;99.90
1129;DHT22;553;51.038;7.216;2023-08-12T03:48:14;21.10;99.90
1129;DHT22;553;51.038;7.216;2023-08-12T03:50:42;21.00;99.90
1129;DHT22;553;51.038;7.216;2023-08-12T03:53:09;21.00;99.90
1129;DHT22;553;51.038;7.216;2023-08-12T03:55:37;21.00;99.90
1129;DHT22;553;51.038;7.216;2023-08-12T03:58:04;21.00;99.90
1129;DHT22;553;51.038;7.216;2023-08-12T04:00:32;21.00;99.90
1129;DHT22;553;51.038;7.216;2023-08-12T04:03:00;21.00;99.90
1129;DHT22;553;51.038;7.216;2023-08-12T04:05:27;21.00;99.90
1129;DHT22;553;51.038;7.216;2023-08-12T04:07:54;21.10;99.90
1129;DHT22;553;51.038;7.216;2023-08-12T04:10:21;21.10;99.90
1129;DHT22;553;51.038;7.216;2023-08-12T04:12:47;21.10;99.90
1129;DHT22;553;51.038;7.216;2023-08-12T04:15:14;21.10;99.90
1129;DHT22;553;51.038;7.216;2023-08-12T04:17:41;21.10;99.90
1129;DHT22;553;51.038;7.216;2023-08-12T04:20:09;21.10;99.90
1129;DHT22;553;51.038;7.216;2023-08-12T04:22:36;21.10;99.90
1129;DHT22;553;51.038;7.216;2023-08-12T04:25:03;21.10;99.90
1129;DHT22;553;51.038;7.216;2023-08-12T04:27:30;21.10;99.90
1129;DHT22;553;51.038;7.216;2023-08-12T04:29:59;21.10;99.90
1129;DHT22;553;51.038;7.216;2023-08-12T04:32:26;21.00;99.90
1129;DHT22;553;51.038;7.216;2023-08-12T04:34:53;21.00;99.90
1129;DHT22;553;51.038;7.216;2023-08-12T04:37:20;21.00;99.90
1129;DHT22;553;51.038;7.216;2023-08-12T04:39:48;21.00;99.90
1129;DHT22;553;51.038;7.216;2023-08-12T04:42:15;20.90;99.90
1129;DHT22;553;51.038;7.216;2023-08-12T04:44:43;20.80;99.90
1129;DHT22;553;51.038;7.216;2023-08-12T04:47:10;20.80;99.90
1129;DHT22;553;51.038;7.216;2023-08-12T04:49:37;20.80;99.90
1129;DHT22;553;51.038;7.216;2023-08-12T04:52:05;20.90;99.90
1129;DHT22;553;51.038;7.216;2023-08-12T04:54:32;20.90;99.90
1129;DHT22;553;51.038;7.216;2023-08-12T04:56:59;20.90;99.90
1129;DHT22;553;51.038;7.216;2023-08-12T04:59:26;20.90;99.90
1129;DHT22;553;51.038;7.216;2023-08-12T05:01:53;20.90;99.90
1129;DHT22;553;51.038;7.216;2023-08-12T05:04:40;20.90;99.90
1129;DHT22;553;51.038;7.216;2023-08-12T05:07:07;20.80;99.90
1129;DHT22;553;51.038;7.216;2023-08-12T05:09:35;20.80;99.90
1129;DHT22;553;51.038;7.216;2023-08-12T05:12:01;20.90;99.90
1129;DHT22;553;51.038;7.216;2023-08-12T05:14:28;20.80;99.90
1129;DHT22;553;51.038;7.216;2023-08-12T05:16:55;20.90;99.90
1129;DHT22;553;51.038;7.216;2023-08-12T05:19:22;20.90;99.90
1129;DHT22;553;51.038;7.216;2023-08-12T05:21:48;20.90;99.90
1129;DHT22;553;51.038;7.216;2023-08-12T05:24:15;20.90;99.90
1129;DHT22;553;51.038;7.216;2023-08-12T05:26:42;21.00;99.90
1129;DHT22;553;51.038;7.216;2023-08-12T05:29:09;21.10;99.90
1129;DHT22;553;51.038;7.216;2023-08-12T05:31:36;21.10;99.90
1129;DHT22;553;51.038;7.216;2023-08-12T05:34:03;21.10;99.90
1129;DHT22;553;51.038;7.216;2023-08-12T05:36:30;21.10;99.90
1129;DHT22;553;51.038;7.216;2023-08-12T05:38:58;21.20;99.90
1129;DHT22;553;51.038;7.216;2023-08-12T05:41:25;21.10;99.90
1129;DHT22;553;51.038;7.216;2023-08-12T05:43:51;21.20;99.90
1129;DHT22;553;51.038;7.216;2023-08-12T05:46:18;21.20;99.90
1129;DHT22;553;51.038;7.216;2023-08-12T05:48:45;21.20;99.90
1129;DHT22;553;51.038;7.216;2023-08-12T05:51:12;21.30;99.90
1129;DHT22;553;51.038;7.216;2023-08-12T05:53:38;21.20;99.90
1129;DHT22;553;51.038;7.216;2023-08-12T05:56:05;21.20;99.90
1129;DHT22;553;51.038;7.216;2023-08-12T05:58:32;21.30;99.90
1129;DHT22;553;51.038;7.216;2023-08-12T06:00:59;21.30;99.90
1129;DHT22;553;51.038;7.216;2023-08-12T06:03:25;21.30;99.90
1129;DHT22;553;51.038;7.216;2023-08-12T06:05:52;21.30;99.90
1129;DHT22;553;51.038;7.216;2023-08-12T06:08:19;21.40;99.90
1129;DHT22;553;51.038;7.216;2023-08-12T06:10:46;21.30;99.90
1129;DHT22;553;51.038;7.216;2023-08-12T06:13:13;21.30;99.90
1129;DHT22;553;51.038;7.216;2023-08-12T06:15:40;21.20;99.90
1129;DHT22;553;51.038;7.216;2023-08-12T06:18:07;21.10;99.90
1129;DHT22;553;51.038;7.216;2023-08-12T06:20:33;21.00;99.90
1129;DHT22;553;51.038;7.216;2023-08-12T06:23:00;20.90;99.90
1129;DHT22;553;51.038;7.216;2023-08-12T06:25:27;20.90;99.90
1129;DHT22;553;51.038;7.216;2023-08-12T06:27:54;20.90;99.90
1129;DHT22;553;51.038;7.216;2023-08-12T06:30:21;20.80;99.90
1129;DHT22;553;51.038;7.216;2023-08-12T06:32:47;20.80;99.90
1129;DHT22;553;51.038;7.216;2023-08-12T06:35:14;20.70;99.90
1129;DHT22;553;51.038;7.216;2023-08-12T06:37:41;20.60;99.90
1129;DHT22;553;51.038;7.216;2023-08-12T06:40:08;20.50;99.90
1129;DHT22;553;51.038;7.216;2023-08-12T06:42:35;20.60;99.90
1129;DHT22;553;51.038;7.216;2023-08-12T06:45:02;20.60;99.90
1129;DHT22;553;51.038;7.216;2023-08-12T06:47:30;20.60;99.90
1129;DHT22;553;51.038;7.216;2023-08-12T06:49:57;20.60;99.90
1129;DHT22;553;51.038;7.216;2023-08-12T06:52:24;20.50;99.90
1129;DHT22;553;51.038;7.216;2023-08-12T06:54:51;20.40;99.90
1129;DHT22;553;51.038;7.216;2023-08-12T06:57:17;20.30;99.90
1129;DHT22;553;51.038;7.216;2023-08-12T06:59:44;20.30;99.90
1129;DHT22;553;51.038;7.216;2023-08-12T07:02:11;20.40;99.90
1129;DHT22;553;51.038;7.216;2023-08-12T07:04:39;20.40;99.90
1129;DHT22;553;51.038;7.216;2023-08-12T07:07:05;20.40;99.90
1129;DHT22;553;51.038;7.216;2023-08-12T07:09:32;20.50;99.90
1129;DHT22;553;51.038;7.216;2023-08-12T07:12:00;20.40;99.90
1129;DHT22;553;51.038;7.216;2023-08-12T07:14:28;20.60;99.90
1129;DHT22;553;51.038;7.216;2023-08-12T07:16:55;20.60;99.90
1129;DHT22;553;51.038;7.216;2023-08-12T07:19:22;20.60;99.90
1129;DHT22;553;51.038;7.216;2023-08-12T07:21:49;20.60;99.90
1129;DHT22;553;51.038;7.216;2023-08-12T07:24:16;20.60;99.90
1129;DHT22;553;51.038;7.216;2023-08-12T07:26:43;20.80;99.90
1129;DHT22;553;51.038;7.216;2023-08-12T07:29:10;21.00;99.90
1129;DHT22;553;51.038;7.216;2023-08-12T07:31:37;21.00;99.90
1129;DHT22;553;51.038;7.216;2023-08-12T07:34:03;21.10;99.90
1129;DHT22;553;51.038;7.216;2023-08-12T07:36:31;21.10;99.90
1129;DHT22;553;51.038;7.216;2023-08-12T07:38:59;21.10;99.90
1129;DHT22;553;51.038;7.216;2023-08-12T07:41:26;21.00;99.90
1129;DHT22;553;51.038;7.216;2023-08-12T07:43:54;21.10;99.90
1129;DHT22;553;51.038;7.216;2023-08-12T07:46:21;21.20;99.90
1129;DHT22;553;51.038;7.216;2023-08-12T07:48:47;21.30;99.90
1129;DHT22;553;51.038;7.216;2023-08-12T07:51:14;21.20;99.90
1129;DHT22;553;51.038;7.216;2023-08-12T07:53:41;21.30;99.90
1129;DHT22;553;51.038;7.216;2023-08-12T07:56:08;21.20;99.90
1129;DHT22;553;51.038;7.216;2023-08-12T07:58:35;21.20;99.90
1129;DHT22;553;51.038;7.216;2023-08-12T08:01:02;21.20;99.90
1129;DHT22;553;51.038;7.216;2023-08-12T08:03:28;21.20;99.90
1129;DHT22;553;51.038;7.216;2023-08-12T08:05:55;21.20;99.90
1129;DHT22;553;51.038;7.216;2023-08-12T08:08:22;21.10;99.90
1129;DHT22;553;51.038;7.216;2023-08-12T08:10:49;21.20;99.90
1129;DHT22;553;51.038;7.216;2023-08-12T08:13:15;21.30;99.90
1129;DHT22;553;51.038;7.216;2023-08-12T08:15:42;21.30;99.90
1129;DHT22;553;51.038;7.216;2023-08-12T08:18:09;21.30;99.90
1129;DHT22;553;51.038;7.216;2023-08-12T08:20:36;21.60;99.90
1129;DHT22;553;51.038;7.216;2023-08-12T08:23:03;21.80;99.90
1129;DHT22;553;51.038;7.216;2023-08-12T08:25:29;21.70;99.90
1129;DHT22;553;51.038;7.216;2023-08-12T08:27:56;21.60;99.90
1129;DHT22;553;51.038;7.216;2023-08-12T08:30:23;21.70;99.90
1129;DHT22;553;51.038;7.216;2023-08-12T08:32:51;21.60;99.90
1129;DHT22;553;51.038;7.216;2023-08-12T08:35:18;21.60;99.90
1129;DHT22;553;51.038;7.216;2023-08-12T08:37:45;21.70;99.90
1129;DHT22;553;51.038;7.216;2023-08-12T08:40:12;21.80;99.90
1129;DHT22;553;51.038;7.216;2023-08-12T08:42:40;22.20;99.90
1129;DHT22;553;51.038;7.216;2023-08-12T08:45:12;22.40;99.90
1129;DHT22;553;51.038;7.216;2023-08-12T08:47:41;22.50;99.90
1129;DHT22;553;51.038;7.216;2023-08-12T08:50:09;22.70;99.90
1129;DHT22;553;51.038;7.216;2023-08-12T08:52:37;22.80;99.90
1129;DHT22;553;51.038;7.216;2023-08-12T08:55:04;23.00;99.90
1129;DHT22;553;51.038;7.216;2023-08-12T08:57:34;22.90;99.90
1129;DHT22;553;51.038;7.216;2023-08-12T09:00:15;22.80;99.90
1129;DHT22;553;51.038;7.216;2023-08-12T09:02:45;22.70;99.90
1129;DHT22;553;51.038;7.216;2023-08-12T09:05:14;22.80;99.90
1129;DHT22;553;51.038;7.216;2023-08-12T09:07:42;22.80;99.90
1129;DHT22;553;51.038;7.216;2023-08-12T09:10:11;22.80;99.90
1129;DHT22;553;51.038;7.216;2023-08-12T09:12:41;22.90;99.90
1129;DHT22;553;51.038;7.216;2023-08-12T09:15:09;22.90;99.90
1129;DHT22;553;51.038;7.216;2023-08-12T09:17:36;22.80;99.90
1129;DHT22;553;51.038;7.216;2023-08-12T09:20:03;22.80;99.90
1129;DHT22;553;51.038;7.216;2023-08-12T09:22:34;22.80;99.90
1129;DHT22;553;51.038;7.216;2023-08-12T09:25:02;22.50;99.90
1129;DHT22;553;51.038;7.216;2023-08-12T09:27:31;22.40;99.90
1129;DHT22;553;51.038;7.216;2023-08-12T09:29:58;22.70;99.90
1129;DHT22;553;51.038;7.216;2023-08-12T09:32:29;23.00;99.90
1129;DHT22;553;51.038;7.216;2023-08-12T09:34:56;23.40;99.90
1129;DHT22;553;51.038;7.216;2023-08-12T09:37:24;23.50;99.90
1129;DHT22;553;51.038;7.216;2023-08-12T09:39:51;23.60;99.90
1129;DHT22;553;51.038;7.216;2023-08-12T09:42:19;23.70;99.90
1129;DHT22;553;51.038;7.216;2023-08-12T09:44:45;23.70;99.90
1129;DHT22;553;51.038;7.216;2023-08-12T09:47:13;23.80;99.90
1129;DHT22;553;51.038;7.216;2023-08-12T09:49:40;23.80;99.90
1129;DHT22;553;51.038;7.216;2023-08-12T09:52:07;23.70;99.90
1129;DHT22;553;51.038;7.216;2023-08-12T09:54:35;23.60;99.90
1129;DHT22;553;51.038;7.216;2023-08-12T09:57:04;23.80;99.90
1129;DHT22;553;51.038;7.216;2023-08-12T09:59:35;24.00;99.90
1129;DHT22;553;51.038;7.216;2023-08-12T10:02:03;24.00;99.90
1129;DHT22;553;51.038;7.216;2023-08-12T10:04:39;24.10;99.90
1129;DHT22;553;51.038;7.216;2023-08-12T10:07:09;24.00;99.90
1129;DHT22;553;51.038;7.216;2023-08-12T10:09:37;24.10;99.90
1129;DHT22;553;51.038;7.216;2023-08-12T10:12:06;24.20;99.90
1129;DHT22;553;51.038;7.216;2023-08-12T10:14:33;24.10;99.90
1129;DHT22;553;51.038;7.216;2023-08-12T10:17:01;24.00;99.90
1129;DHT22;553;51.038;7.216;2023-08-12T10:19:32;23.80;99.90
1129;DHT22;553;51.038;7.216;2023-08-12T10:21:59;23.80;99.90
1129;DHT22;553;51.038;7.216;2023-08-12T10:24:27;23.80;99.90
1129;DHT22;553;51.038;7.216;2023-08-12T10:26:54;23.90;99.90
1129;DHT22;553;51.038;7.216;2023-08-12T10:29:23;23.90;99.90
1129;DHT22;553;51.038;7.216;2023-08-12T10:31:51;23.90;99.90
1129;DHT22;553;51.038;7.216;2023-08-12T10:34:22;23.80;99.90
1129;DHT22;553;51.038;7.216;2023-08-12T10:36:54;23.70;99.90
1129;DHT22;553;51.038;7.216;2023-08-12T10:39:31;23.70;99.90
1129;DHT22;553;51.038;7.216;2023-08-12T10:41:58;23.40;99.90
1129;DHT22;553;51.038;7.216;2023-08-12T10:47:10;23.20;99.90
1129;DHT22;553;51.038;7.216;2023-08-12T10:49:43;23.10;99.90
1129;DHT22;553;51.038;7.216;2023-08-12T10:52:31;23.10;99.90
1129;DHT22;553;51.038;7.216;2023-08-12T10:55:23;23.10;99.90
1129;DHT22;553;51.038;7.216;2023-08-12T10:57:53;23.00;99.90
1129;DHT22;553;51.038;7.216;2023-08-12T11:00:27;22.90;99.90
1129;DHT22;553;51.038;7.216;2023-08-12T11:02:55;22.80;99.90
1129;DHT22;553;51.038;7.216;2023-08-12T11:05:24;22.80;99.90
1129;DHT22;553;51.038;7.216;2023-08-12T11:07:59;22.80;99.90
1129;DHT22;553;51.038;7.216;2023-08-12T11:10:30;22.80;99.90
1129;DHT22;553;51.038;7.216;2023-08-12T11:13:00;22.80;99.90
1129;DHT22;553;51.038;7.216;2023-08-12T11:15:34;22.80;99.90
1129;DHT22;553;51.038;7.216;2023-08-12T11:18:08;22.80;99.90
1129;DHT22;553;51.038;7.216;2023-08-12T11:20:36;22.80;99.90
1129;DHT22;553;51.038;7.216;2023-08-12T11:23:03;22.90;99.90
1129;DHT22;553;51.038;7.216;2023-08-12T11:25:32;23.00;99.90
1129;DHT22;553;51.038;7.216;2023-08-12T11:27:59;22.90;99.90
1129;DHT22;553;51.038;7.216;2023-08-12T11:30:26;23.00;99.90
1129;DHT22;553;51.038;7.216;2023-08-12T11:32:58;23.00;99.90
1129;DHT22;553;51.038;7.216;2023-08-12T11:35:25;23.10;99.90
1129;DHT22;553;51.038;7.216;2023-08-12T11:37:54;23.20;99.90
1129;DHT22;553;51.038;7.216;2023-08-12T11:40:23;23.30;99.90
1129;DHT22;553;51.038;7.216;2023-08-12T11:42:51;23.40;99.90
1129;DHT22;553;51.038;7.216;2023-08-12T11:45:23;23.40;99.90
1129;DHT22;553;51.038;7.216;2023-08-12T11:47:50;23.40;99.90
1129;DHT22;553;51.038;7.216;2023-08-12T11:50:26;23.60;99.90
1129;DHT22;553;51.038;7.216;2023-08-12T11:52:54;23.70;99.90
1129;DHT22;553;51.038;7.216;2023-08-12T11:55:22;23.80;99.90
1129;DHT22;553;51.038;7.216;2023-08-12T11:57:50;23.80;99.90
1129;DHT22;553;51.038;7.216;2023-08-12T12:00:17;23.80;99.90
1129;DHT22;553;51.038;7.216;2023-08-12T12:02:54;23.90;99.90
1129;DHT22;553;51.038;7.216;2023-08-12T12:05:29;23.80;99.90
1129;DHT22;553;51.038;7.216;2023-08-12T12:08:01;23.80;99.90
1129;DHT22;553;51.038;7.216;2023-08-12T12:10:31;23.80;99.90
1129;DHT22;553;51.038;7.216;2023-08-12T12:13:02;23.70;99.90
1129;DHT22;553;51.038;7.216;2023-08-12T12:15:29;23.80;99.90
1129;DHT22;553;51.038;7.216;2023-08-12T12:17:56;23.80;99.90
1129;DHT22;553;51.038;7.216;2023-08-12T12:20:23;23.60;99.90
1129;DHT22;553;51.038;7.216;2023-08-12T12:22:50;23.60;99.90
1129;DHT22;553;51.038;7.216;2023-08-12T12:25:17;23.60;99.90
1129;DHT22;553;51.038;7.216;2023-08-12T12:27:46;23.60;99.90
1129;DHT22;553;51.038;7.216;2023-08-12T12:30:15;23.60;99.90
1129;DHT22;553;51.038;7.216;2023-08-12T12:32:42;23.50;99.90
1129;DHT22;553;51.038;7.216;2023-08-12T12:35:09;23.40;99.90
1129;DHT22;553;51.038;7.216;2023-08-12T12:37:36;23.40;99.90
1129;DHT22;553;51.038;7.216;2023-08-12T12:40:04;23.40;99.90
1129;DHT22;553;51.038;7.216;2023-08-12T12:42:31;23.30;99.90
1129;DHT22;553;51.038;7.216;2023-08-12T12:44:58;23.40;99.90
1129;DHT22;553;51.038;7.216;2023-08-12T12:47:25;23.30;99.90
1129;DHT22;553;51.038;7.216;2023-08-12T12:49:52;23.30;99.90
1129;DHT22;553;51.038;7.216;2023-08-12T12:52:18;23.30;99.90
1129;DHT22;553;51.038;7.216;2023-08-12T12:54:45;23.30;99.90
1129;DHT22;553;51.038;7.216;2023-08-12T12:57:12;23.50;99.90
1129;DHT22;553;51.038;7.216;2023-08-12T12:59:39;23.70;99.90
1129;DHT22;553;51.038;7.216;2023-08-12T13:02:05;23.80;99.90
1129;DHT22;553;51.038;7.216;2023-08-12T13:04:32;24.00;99.90
1129;DHT22;553;51.038;7.216;2023-08-12T13:06:59;24.20;99.90
1129;DHT22;553;51.038;7.216;2023-08-12T13:09:25;24.20;99.90
1129;DHT22;553;51.038;7.216;2023-08-12T13:11:52;24.30;99.90
1129;DHT22;553;51.038;7.216;2023-08-12T13:14:19;24.40;99.90
1129;DHT22;553;51.038;7.216;2023-08-12T13:16:48;24.50;99.90
1129;DHT22;553;51.038;7.216;2023-08-12T13:19:14;24.40;99.90
1129;DHT22;553;51.038;7.216;2023-08-12T13:21:41;24.30;99.90
1129;DHT22;553;51.038;7.216;2023-08-12T13:24:08;24.20;99.90
1129;DHT22;553;51.038;7.216;2023-08-12T13:26:35;24.20;99.90
1129;DHT22;553;51.038;7.216;2023-08-12T13:29:02;24.10;99.90
1129;DHT22;553;51.038;7.216;2023-08-12T13:31:28;24.20;99.90
1129;DHT22;553;51.038;7.216;2023-08-12T13:33:55;24.10;99.90
1129;DHT22;553;51.038;7.216;2023-08-12T13:36:22;24.20;99.90
1129;DHT22;553;51.038;7.216;2023-08-12T13:38:48;24.20;99.90
1129;DHT22;553;51.038;7.216;2023-08-12T13:41:15;24.40;99.90
1129;DHT22;553;51.038;7.216;2023-08-12T13:43:42;24.50;99.90
1129;DHT22;553;51.038;7.216;2023-08-12T13:46:09;24.50;99.90
1129;DHT22;553;51.038;7.216;2023-08-12T13:48:36;24.50;99.90
1129;DHT22;553;51.038;7.216;2023-08-12T13:51:03;24.30;99.90
1129;DHT22;553;51.038;7.216;2023-08-12T13:53:30;24.20;99.90
1129;DHT22;553;51.038;7.216;2023-08-12T13:55:57;23.90;99.90
1129;DHT22;553;51.038;7.216;2023-08-12T13:58:23;23.20;99.90
1129;DHT22;553;51.038;7.216;2023-08-12T14:00:50;23.10;99.90
1129;DHT22;553;51.038;7.216;2023-08-12T14:03:17;23.00;99.90
1129;DHT22;553;51.038;7.216;2023-08-12T14:05:44;22.90;99.90
1129;DHT22;553;51.038;7.216;2023-08-12T14:08:11;22.70;99.90
1129;DHT22;553;51.038;7.216;2023-08-12T14:10:38;22.60;99.90
1129;DHT22;553;51.038;7.216;2023-08-12T14:13:04;22.50;99.90
1129;DHT22;553;51.038;7.216;2023-08-12T14:15:33;22.40;99.90
1129;DHT22;553;51.038;7.216;2023-08-12T14:18:00;22.60;99.90
1129;DHT22;553;51.038;7.216;2023-08-12T14:20:27;22.70;99.90
1129;DHT22;553;51.038;7.216;2023-08-12T14:22:54;22.70;99.90
1129;DHT22;553;51.038;7.216;2023-08-12T14:25:20;22.90;99.90
1129;DHT22;553;51.038;7.216;2023-08-12T14:27:47;22.80;99.90
1129;DHT22;553;51.038;7.216;2023-08-12T14:30:14;23.00;99.90
1129;DHT22;553;51.038;7.216;2023-08-12T14:32:40;23.10;99.90
1129;DHT22;553;51.038;7.216;2023-08-12T14:35:07;23.20;99.90
1129;DHT22;553;51.038;7.216;2023-08-12T14:37:34;23.10;99.90
1129;DHT22;553;51.038;7.216;2023-08-12T14:40:01;22.90;99.90
1129;DHT22;553;51.038;7.216;2023-08-12T14:42:28;22.90;99.90
1129;DHT22;553;51.038;7.216;2023-08-12T14:44:55;23.00;99.90
1129;DHT22;553;51.038;7.216;2023-08-12T14:47:22;23.10;99.90
1129;DHT22;553;51.038;7.216;2023-08-12T14:49:48;22.90;99.90
1129;DHT22;553;51.038;7.216;2023-08-12T14:52:17;23.00;99.90
1129;DHT22;553;51.038;7.216;2023-08-12T14:54:46;23.10;99.90
1129;DHT22;553;51.038;7.216;2023-08-12T14:57:13;23.10;99.90
1129;DHT22;553;51.038;7.216;2023-08-12T14:59:40;23.30;99.90
1129;DHT22;553;51.038;7.216;2023-08-12T15:02:07;23.40;99.90
1129;DHT22;553;51.038;7.216;2023-08-12T15:04:34;23.50;99.90
1129;DHT22;553;51.038;7.216;2023-08-12T15:07:01;23.40;99.90
1129;DHT22;553;51.038;7.216;2023-08-12T15:09:28;23.30;99.90
1129;DHT22;553;51.038;7.216;2023-08-12T15:11:56;23.30;99.90
1129;DHT22;553;51.038;7.216;2023-08-12T15:14:22;23.20;99.90
1129;DHT22;553;51.038;7.216;2023-08-12T15:16:49;23.20;99.90
1129;DHT22;553;51.038;7.216;2023-08-12T15:19:16;23.10;99.90
1129;DHT22;553;51.038;7.216;2023-08-12T15:21:43;23.20;99.90
1129;DHT22;553;51.038;7.216;2023-08-12T15:24:09;23.30;99.90
1129;DHT22;553;51.038;7.216;2023-08-12T15:26:37;23.50;99.90
1129;DHT22;553;51.038;7.216;2023-08-12T15:29:04;23.70;99.90
1129;DHT22;553;51.038;7.216;2023-08-12T15:31:30;23.50;99.90
1129;DHT22;553;51.038;7.216;2023-08-12T15:33:57;23.50;99.90
1129;DHT22;553;51.038;7.216;2023-08-12T15:36:24;23.60;99.90
1129;DHT22;553;51.038;7.216;2023-08-12T15:38:51;23.60;99.90
1129;DHT22;553;51.038;7.216;2023-08-12T15:41:17;23.70;99.90
1129;DHT22;553;51.038;7.216;2023-08-12T15:43:44;23.70;99.90
1129;DHT22;553;51.038;7.216;2023-08-12T15:46:11;23.80;99.90
1129;DHT22;553;51.038;7.216;2023-08-12T15:48:39;23.80;99.90
1129;DHT22;553;51.038;7.216;2023-08-12T15:51:06;23.80;99.90
1129;DHT22;553;51.038;7.216;2023-08-12T15:53:33;23.70;99.90
1129;DHT22;553;51.038;7.216;2023-08-12T15:56:00;23.70;99.90
1129;DHT22;553;51.038;7.216;2023-08-12T15:58:26;23.70;99.90
1129;DHT22;553;51.038;7.216;2023-08-12T16:00:53;23.70;99.90
1129;DHT22;553;51.038;7.216;2023-08-12T16:03:20;23.60;99.90
1129;DHT22;553;51.038;7.216;2023-08-12T16:05:47;23.70;99.90
1129;DHT22;553;51.038;7.216;2023-08-12T16:08:16;23.80;99.90
1129;DHT22;553;51.038;7.216;2023-08-12T16:10:43;23.70;99.90
1129;DHT22;553;51.038;7.216;2023-08-12T16:13:10;23.70;99.90
1129;DHT22;553;51.038;7.216;2023-08-12T16:15:36;23.80;99.50
1129;DHT22;553;51.038;7.216;2023-08-12T16:18:04;23.90;99.30
1129;DHT22;553;51.038;7.216;2023-08-12T16:20:31;24.00;99.90
1129;DHT22;553;51.038;7.216;2023-08-12T16:22:58;23.90;97.40
1129;DHT22;553;51.038;7.216;2023-08-12T16:25:25;23.80;97.60
1129;DHT22;553;51.038;7.216;2023-08-12T16:27:52;23.80;98.20